Date,TemperatureHighF,TemperatureAvgF,TemperatureLowF,DewpointHighF,DewpointAvgF,DewpointLowF,HumidityHigh,HumidityAvg,HumidityLow,PressureMaxIn,PressureMinIn,WindSpeedMaxMPH,WindSpeedAvgMPH,GustSpeedMaxMPH,PrecipitationSumIn
2013-8-1,81,68,58,59,55,52,87,65,38,30.02,29.91,11,3,14,0.00
2013-8-2,83,72,63,63,57,51,83,61,37,29.98,29.84,10,4,12,0.00
2013-8-3,81,67,51,56,51,47,86,58,33,30.15,29.98,11,3,13,0.00
2013-8-4,78,65,50,56,52,46,87,65,43,30.24,30.11,8,2,11,0.00
2013-8-5,72,64,58,62,57,52,86,77,62,30.12,29.87,12,4,16,0.09
2013-8-6,85,74,66,66,64,62,88,72,51,29.89,29.80,12,4,15,0.00
2013-8-7,81,73,62,68,62,55,86,68,50,29.99,29.77,14,4,14,0.00
2013-8-8,79,69,59,60,57,51,85,66,47,30.07,29.99,7,3,10,0.00
2013-8-9,83,69,56,61,55,50,82,62,40,30.08,29.99,11,3,12,0.00
2013-8-10,78,66,52,57,52,48,87,65,42,30.17,30.08,6,2,9,0.00
2013-8-11,74,63,52,62,57,49,90,80,65,30.14,30.04,8,2,11,0.13
2013-8-12,82,74,65,65,60,53,89,63,44,30.00,29.93,9,3,11,0.08
2013-8-13,73,63,51,55,49,44,80,60,40,30.18,30.00,10,3,10,0.00
2013-8-14,75,61,46,53,48,43,91,67,42,30.23,30.13,10,2,10,0.18
2013-8-15,79,64,54,57,53,49,86,68,42,30.16,30.10,8,2,12,0.00
2013-8-16,84,67,51,60,52,48,90,64,32,30.20,30.13,8,2,9,0.00
2013-8-17,83,67,52,58,53,48,90,64,36,30.25,30.17,8,2,12,0.00
2013-8-18,82,67,51,60,53,48,90,65,35,30.23,30.09,10,2,11,0.00
2013-8-19,84,69,54,62,57,50,90,68,44,30.11,30.02,14,3,15,0.00
2013-8-20,86,74,60,64,61,56,90,66,44,30.08,30.00,15,5,17,0.00
2013-8-21,90,80,70,68,65,61,74,62,45,30.03,29.93,21,7,24,0.00
2013-8-22,82,72,67,68,65,60,88,78,57,30.14,30.00,10,2,20,1.71
2013-8-23,83,70,56,61,56,52,89,65,42,30.20,30.12,8,3,10,0.00
2013-8-24,84,71,54,66,59,50,89,68,52,30.26,30.16,11,4,14,0.00
2013-8-25,89,79,70,69,64,60,75,62,49,30.20,30.09,17,8,18,0.00
2013-8-26,91,80,70,72,67,62,75,65,52,30.13,29.97,12,5,14,0.00
2013-8-27,94,82,73,72,69,66,80,65,48,29.98,29.82,15,5,18,0.00
2013-8-28,86,77,69,71,67,64,84,72,55,30.06,29.86,9,2,11,0.00
2013-8-29,87,77,62,68,64,59,90,67,46,30.10,29.98,11,4,13,0.00
2013-8-30,93,79,69,73,68,63,87,70,48,29.98,29.79,11,4,14,0.00
2013-8-31,71,68,66,63,60,59,80,76,74,29.90,29.85,9,4,9,0.00